Poplarville, MS (39470)

12:15 PM CDT on July 28, 2016 (GMT -0500)
Pearl River Hay Farm | | Change Station

Elev 256 ft 30.92 °N, 89.66 °W | Updated 1 minute ago

Clear
Clear
88.3 °F
Feels Like 96 °F
N
0.4
Wind Variable Wind from WSW
Gusts 2.5 mph

Today
High -- | Low -- °F
--% Chance of Precip.
Yesterday
High -- | Low -- °F
Precip. -- in
Pressure 30.07 in
Visibility 10.0 miles
Clouds Clear
Heat Index 96 °F
Dew Point 73 °F
Humidity 61%
Rainfall 0.00 in
Snow Depth Not available.
6:13 AM 7:55 PM
Waning Crescent, 30% visible
METAR KBXA 281655Z AUTO 21008KT 10SM CLR 32/23 A3007 RMK AO2 T03220230 PWINO
Pressure 30.07 in
Visibility 10.0 miles
Clouds Clear
Heat Index 96 °F
Dew Point 73 °F
Humidity 61%
Rainfall 0.00 in
Snow Depth Not available.
6:13 AM 7:55 PM
Waning Crescent, 30% visible
METAR KBXA 281655Z AUTO 21008KT 10SM CLR 32/23 A3007 RMK AO2 T03220230 PWINO

10-Day Weather Forecast

Almanac

Astronomy

Jul. 28, 2016 Rise Set
Actual Time
Civil Twilight
Nautical Twilight
Astronomical Twilight
Moon
Length of Visible Light
Length of Day
Tomorrow will be .
, % of the Moon is Illuminated

Today's Extremes

State Highs State Lows

Community

WunderPhotos

Upload Photos

1,928,163 photos uploaded!

WunderBlog® & News

Nearby

Air Quality

  Air Quality AQ Index Pollutant
Not available.

Snow Depth

Station Depth Elevation

Earthquake Activity

City Distance Mag. Time & Date
Minimum magnitude displayed is 2.5.

Coastal Water Temperatures

Place Temperature

Stations

Nearby Weather Stations

Station Location Temp. Windchill Dew Point Humidity Wind Precip. Elev Updated Type
                   

Watches & Warnings

There are currently no watches in effect.